sensor_id;sensor_type;location;lat;lon;timestamp;temperature;humidity
14471;DHT22;7321;50.802;4.336;2024-02-23T00:00:02;6.80;99.90
14471;DHT22;7321;50.802;4.336;2024-02-23T00:02:31;6.70;99.90
14471;DHT22;7321;50.802;4.336;2024-02-23T00:04:57;6.60;99.90
14471;DHT22;7321;50.802;4.336;2024-02-23T00:07:23;6.60;99.90
14471;DHT22;7321;50.802;4.336;2024-02-23T00:09:49;6.40;99.90
14471;DHT22;7321;50.802;4.336;2024-02-23T00:12:15;6.40;99.90
14471;DHT22;7321;50.802;4.336;2024-02-23T00:14:44;6.40;99.90
14471;DHT22;7321;50.802;4.336;2024-02-23T00:17:10;6.60;99.90
14471;DHT22;7321;50.802;4.336;2024-02-23T00:19:37;6.30;99.90
14471;DHT22;7321;50.802;4.336;2024-02-23T00:22:03;6.30;99.90
14471;DHT22;7321;50.802;4.336;2024-02-23T00:24:29;6.30;99.90
14471;DHT22;7321;50.802;4.336;2024-02-23T00:26:55;6.20;99.90
14471;DHT22;7321;50.802;4.336;2024-02-23T00:29:21;6.10;99.90
14471;DHT22;7321;50.802;4.336;2024-02-23T00:31:47;6.10;99.90
14471;DHT22;7321;50.802;4.336;2024-02-23T00:34:13;6.10;99.90
14471;DHT22;7321;50.802;4.336;2024-02-23T00:36:43;6.10;99.90
14471;DHT22;7321;50.802;4.336;2024-02-23T00:39:15;6.20;99.90
14471;DHT22;7321;50.802;4.336;2024-02-23T00:41:44;6.30;99.90
14471;DHT22;7321;50.802;4.336;2024-02-23T00:44:10;6.20;99.90
14471;DHT22;7321;50.802;4.336;2024-02-23T00:46:35;6.20;99.90
14471;DHT22;7321;50.802;4.336;2024-02-23T00:49:01;6.20;99.90
14471;DHT22;7321;50.802;4.336;2024-02-23T00:51:27;6.30;99.90
14471;DHT22;7321;50.802;4.336;2024-02-23T00:53:53;6.40;99.90
14471;DHT22;7321;50.802;4.336;2024-02-23T00:56:19;6.30;99.90
14471;DHT22;7321;50.802;4.336;2024-02-23T00:58:45;6.30;99.90
14471;DHT22;7321;50.802;4.336;2024-02-23T01:01:10;6.40;99.90
14471;DHT22;7321;50.802;4.336;2024-02-23T01:03:37;6.30;99.90
14471;DHT22;7321;50.802;4.336;2024-02-23T01:06:03;6.30;99.90
14471;DHT22;7321;50.802;4.336;2024-02-23T01:08:32;6.40;99.90
14471;DHT22;7321;50.802;4.336;2024-02-23T01:10:58;6.50;99.90
14471;DHT22;7321;50.802;4.336;2024-02-23T01:13:24;6.50;99.90
14471;DHT22;7321;50.802;4.336;2024-02-23T01:15:50;6.50;99.90
14471;DHT22;7321;50.802;4.336;2024-02-23T01:18:15;6.30;99.90
14471;DHT22;7321;50.802;4.336;2024-02-23T01:20:45;6.30;99.90
14471;DHT22;7321;50.802;4.336;2024-02-23T01:23:11;6.40;99.90
14471;DHT22;7321;50.802;4.336;2024-02-23T01:25:40;6.40;99.90
14471;DHT22;7321;50.802;4.336;2024-02-23T01:28:06;6.20;99.90
14471;DHT22;7321;50.802;4.336;2024-02-23T01:30:32;6.10;99.90
14471;DHT22;7321;50.802;4.336;2024-02-23T01:32:58;6.10;99.90
14471;DHT22;7321;50.802;4.336;2024-02-23T01:35:23;6.10;99.90
14471;DHT22;7321;50.802;4.336;2024-02-23T01:37:50;6.10;99.90
14471;DHT22;7321;50.802;4.336;2024-02-23T01:40:16;6.10;99.90
14471;DHT22;7321;50.802;4.336;2024-02-23T01:42:42;6.10;99.90
14471;DHT22;7321;50.802;4.336;2024-02-23T01:45:08;6.10;99.90
14471;DHT22;7321;50.802;4.336;2024-02-23T01:47:34;6.10;99.90
14471;DHT22;7321;50.802;4.336;2024-02-23T01:49:59;6.10;99.90
14471;DHT22;7321;50.802;4.336;2024-02-23T01:52:25;6.10;99.90
14471;DHT22;7321;50.802;4.336;2024-02-23T01:54:52;6.10;99.90
14471;DHT22;7321;50.802;4.336;2024-02-23T01:57:19;6.00;99.90
14471;DHT22;7321;50.802;4.336;2024-02-23T01:59:46;6.10;99.90
14471;DHT22;7321;50.802;4.336;2024-02-23T02:02:13;6.20;99.90
14471;DHT22;7321;50.802;4.336;2024-02-23T02:04:41;6.20;99.90
14471;DHT22;7321;50.802;4.336;2024-02-23T02:07:07;6.30;99.90
14471;DHT22;7321;50.802;4.336;2024-02-23T02:09:33;6.20;99.90
14471;DHT22;7321;50.802;4.336;2024-02-23T02:12:02;6.30;99.90
14471;DHT22;7321;50.802;4.336;2024-02-23T02:14:27;6.40;99.90
14471;DHT22;7321;50.802;4.336;2024-02-23T02:16:57;6.50;99.90
14471;DHT22;7321;50.802;4.336;2024-02-23T02:19:22;6.50;99.90
14471;DHT22;7321;50.802;4.336;2024-02-23T02:21:48;6.50;99.90
14471;DHT22;7321;50.802;4.336;2024-02-23T02:24:14;6.50;99.90
14471;DHT22;7321;50.802;4.336;2024-02-23T02:26:40;6.60;99.90
14471;DHT22;7321;50.802;4.336;2024-02-23T02:29:05;6.60;99.90
14471;DHT22;7321;50.802;4.336;2024-02-23T02:31:31;6.50;99.90
14471;DHT22;7321;50.802;4.336;2024-02-23T02:34:03;6.40;99.90
14471;DHT22;7321;50.802;4.336;2024-02-23T02:36:29;6.40;99.90
14471;DHT22;7321;50.802;4.336;2024-02-23T02:38:55;6.30;99.90
14471;DHT22;7321;50.802;4.336;2024-02-23T02:41:23;6.50;99.90
14471;DHT22;7321;50.802;4.336;2024-02-23T02:43:50;6.50;99.90
14471;DHT22;7321;50.802;4.336;2024-02-23T02:46:16;6.60;99.90
14471;DHT22;7321;50.802;4.336;2024-02-23T02:48:42;6.70;99.90
14471;DHT22;7321;50.802;4.336;2024-02-23T02:51:09;6.70;99.90
14471;DHT22;7321;50.802;4.336;2024-02-23T02:53:35;6.60;99.90
14471;DHT22;7321;50.802;4.336;2024-02-23T02:56:01;6.70;99.90
14471;DHT22;7321;50.802;4.336;2024-02-23T02:58:27;6.60;99.90
14471;DHT22;7321;50.802;4.336;2024-02-23T03:00:52;6.60;99.90
14471;DHT22;7321;50.802;4.336;2024-02-23T03:03:18;6.50;99.90
14471;DHT22;7321;50.802;4.336;2024-02-23T03:05:44;6.50;99.90
14471;DHT22;7321;50.802;4.336;2024-02-23T03:08:14;6.70;99.90
14471;DHT22;7321;50.802;4.336;2024-02-23T03:10:40;6.60;99.90
14471;DHT22;7321;50.802;4.336;2024-02-23T03:13:06;6.70;99.90
14471;DHT22;7321;50.802;4.336;2024-02-23T03:15:32;6.60;99.90
14471;DHT22;7321;50.802;4.336;2024-02-23T03:17:59;6.80;99.90
14471;DHT22;7321;50.802;4.336;2024-02-23T03:20:26;6.70;99.90
14471;DHT22;7321;50.802;4.336;2024-02-23T03:22:52;6.70;99.90
14471;DHT22;7321;50.802;4.336;2024-02-23T03:25:18;6.60;99.90
14471;DHT22;7321;50.802;4.336;2024-02-23T03:27:44;6.50;99.90
14471;DHT22;7321;50.802;4.336;2024-02-23T03:30:10;6.50;99.90
14471;DHT22;7321;50.802;4.336;2024-02-23T03:32:36;6.50;99.90
14471;DHT22;7321;50.802;4.336;2024-02-23T03:35:03;6.40;99.90
14471;DHT22;7321;50.802;4.336;2024-02-23T03:37:29;6.40;99.90
14471;DHT22;7321;50.802;4.336;2024-02-23T03:39:55;6.50;99.90
14471;DHT22;7321;50.802;4.336;2024-02-23T03:42:21;6.50;99.90
14471;DHT22;7321;50.802;4.336;2024-02-23T03:44:47;6.60;99.90
14471;DHT22;7321;50.802;4.336;2024-02-23T03:47:13;6.50;99.90
14471;DHT22;7321;50.802;4.336;2024-02-23T03:49:42;6.60;99.90
14471;DHT22;7321;50.802;4.336;2024-02-23T03:52:08;6.60;99.90
14471;DHT22;7321;50.802;4.336;2024-02-23T03:54:34;6.70;99.90
14471;DHT22;7321;50.802;4.336;2024-02-23T03:57:00;6.60;99.90
14471;DHT22;7321;50.802;4.336;2024-02-23T03:59:29;6.60;99.90
14471;DHT22;7321;50.802;4.336;2024-02-23T04:01:55;6.40;99.90
14471;DHT22;7321;50.802;4.336;2024-02-23T04:04:21;6.50;99.90
14471;DHT22;7321;50.802;4.336;2024-02-23T04:06:47;6.60;99.90
14471;DHT22;7321;50.802;4.336;2024-02-23T04:09:13;6.60;99.90
14471;DHT22;7321;50.802;4.336;2024-02-23T04:11:42;6.60;99.90
14471;DHT22;7321;50.802;4.336;2024-02-23T04:14:08;6.60;99.90
14471;DHT22;7321;50.802;4.336;2024-02-23T04:16:34;6.60;99.90
14471;DHT22;7321;50.802;4.336;2024-02-23T04:18:59;6.60;99.90
14471;DHT22;7321;50.802;4.336;2024-02-23T04:21:26;6.70;99.90
14471;DHT22;7321;50.802;4.336;2024-02-23T04:23:52;6.60;99.90
14471;DHT22;7321;50.802;4.336;2024-02-23T04:26:18;6.60;99.90
14471;DHT22;7321;50.802;4.336;2024-02-23T04:28:44;6.60;99.90
14471;DHT22;7321;50.802;4.336;2024-02-23T04:31:10;6.70;99.90
14471;DHT22;7321;50.802;4.336;2024-02-23T04:33:37;6.70;99.90
14471;DHT22;7321;50.802;4.336;2024-02-23T04:36:03;6.70;99.90
14471;DHT22;7321;50.802;4.336;2024-02-23T04:38:30;6.70;99.90
14471;DHT22;7321;50.802;4.336;2024-02-23T04:40:56;6.70;99.90
14471;DHT22;7321;50.802;4.336;2024-02-23T04:43:23;6.80;99.90
14471;DHT22;7321;50.802;4.336;2024-02-23T04:45:50;6.80;99.90
14471;DHT22;7321;50.802;4.336;2024-02-23T04:48:16;6.70;99.90
14471;DHT22;7321;50.802;4.336;2024-02-23T04:50:43;6.70;99.90
14471;DHT22;7321;50.802;4.336;2024-02-23T04:53:12;6.80;99.90
14471;DHT22;7321;50.802;4.336;2024-02-23T04:55:38;6.80;99.90
14471;DHT22;7321;50.802;4.336;2024-02-23T04:58:04;6.80;99.90
14471;DHT22;7321;50.802;4.336;2024-02-23T05:00:29;6.80;99.90
14471;DHT22;7321;50.802;4.336;2024-02-23T05:03:00;6.90;99.90
14471;DHT22;7321;50.802;4.336;2024-02-23T05:05:31;6.90;99.90
14471;DHT22;7321;50.802;4.336;2024-02-23T05:07:58;6.80;99.90
14471;DHT22;7321;50.802;4.336;2024-02-23T05:10:24;6.70;99.90
14471;DHT22;7321;50.802;4.336;2024-02-23T05:12:50;6.70;99.90
14471;DHT22;7321;50.802;4.336;2024-02-23T05:15:16;6.60;99.90
14471;DHT22;7321;50.802;4.336;2024-02-23T05:17:42;6.60;99.90
14471;DHT22;7321;50.802;4.336;2024-02-23T05:20:08;6.60;99.90
14471;DHT22;7321;50.802;4.336;2024-02-23T05:22:39;6.70;99.90
14471;DHT22;7321;50.802;4.336;2024-02-23T05:25:05;6.80;99.90
14471;DHT22;7321;50.802;4.336;2024-02-23T05:27:31;6.80;99.90
14471;DHT22;7321;50.802;4.336;2024-02-23T05:29:57;6.70;99.90
14471;DHT22;7321;50.802;4.336;2024-02-23T05:32:23;6.80;99.90
14471;DHT22;7321;50.802;4.336;2024-02-23T05:34:49;6.80;99.90
14471;DHT22;7321;50.802;4.336;2024-02-23T05:37:18;6.70;99.90
14471;DHT22;7321;50.802;4.336;2024-02-23T05:39:44;6.60;99.90
14471;DHT22;7321;50.802;4.336;2024-02-23T05:42:12;6.80;99.90
14471;DHT22;7321;50.802;4.336;2024-02-23T05:44:38;6.90;99.90
14471;DHT22;7321;50.802;4.336;2024-02-23T05:47:05;6.90;99.90
14471;DHT22;7321;50.802;4.336;2024-02-23T05:49:31;6.80;99.90
14471;DHT22;7321;50.802;4.336;2024-02-23T05:51:57;6.70;99.90
14471;DHT22;7321;50.802;4.336;2024-02-23T05:54:22;6.70;99.90
14471;DHT22;7321;50.802;4.336;2024-02-23T05:56:48;6.50;99.90
14471;DHT22;7321;50.802;4.336;2024-02-23T05:59:15;6.70;99.90
14471;DHT22;7321;50.802;4.336;2024-02-23T06:01:41;6.70;99.90
14471;DHT22;7321;50.802;4.336;2024-02-23T06:04:07;6.60;99.90
14471;DHT22;7321;50.802;4.336;2024-02-23T06:06:35;6.60;99.90
14471;DHT22;7321;50.802;4.336;2024-02-23T06:09:01;6.60;99.90
14471;DHT22;7321;50.802;4.336;2024-02-23T06:11:28;6.50;99.90
14471;DHT22;7321;50.802;4.336;2024-02-23T06:13:55;6.40;99.90
14471;DHT22;7321;50.802;4.336;2024-02-23T06:16:30;6.50;99.90
14471;DHT22;7321;50.802;4.336;2024-02-23T06:18:57;6.50;99.90
14471;DHT22;7321;50.802;4.336;2024-02-23T06:21:25;6.40;99.90
14471;DHT22;7321;50.802;4.336;2024-02-23T06:23:52;6.30;99.90
14471;DHT22;7321;50.802;4.336;2024-02-23T06:26:21;6.40;99.90
14471;DHT22;7321;50.802;4.336;2024-02-23T06:28:47;6.50;99.90
14471;DHT22;7321;50.802;4.336;2024-02-23T06:31:14;6.50;99.90
14471;DHT22;7321;50.802;4.336;2024-02-23T06:33:40;6.50;99.90
14471;DHT22;7321;50.802;4.336;2024-02-23T06:36:09;6.50;99.90
14471;DHT22;7321;50.802;4.336;2024-02-23T06:38:35;6.50;99.90
14471;DHT22;7321;50.802;4.336;2024-02-23T06:41:01;6.60;99.90
14471;DHT22;7321;50.802;4.336;2024-02-23T06:43:27;6.60;99.90
14471;DHT22;7321;50.802;4.336;2024-02-23T06:45:55;6.60;99.90
14471;DHT22;7321;50.802;4.336;2024-02-23T06:48:23;6.60;99.90
14471;DHT22;7321;50.802;4.336;2024-02-23T06:50:49;6.70;99.90
14471;DHT22;7321;50.802;4.336;2024-02-23T06:53:15;6.70;99.90
14471;DHT22;7321;50.802;4.336;2024-02-23T06:55:41;6.70;99.90
14471;DHT22;7321;50.802;4.336;2024-02-23T06:58:07;6.70;99.90
14471;DHT22;7321;50.802;4.336;2024-02-23T07:00:34;6.70;99.90
14471;DHT22;7321;50.802;4.336;2024-02-23T07:03:00;6.80;99.90
14471;DHT22;7321;50.802;4.336;2024-02-23T07:05:29;6.80;99.90
14471;DHT22;7321;50.802;4.336;2024-02-23T07:07:54;6.70;99.90
14471;DHT22;7321;50.802;4.336;2024-02-23T07:10:20;6.80;99.90
14471;DHT22;7321;50.802;4.336;2024-02-23T07:12:48;6.70;99.90
14471;DHT22;7321;50.802;4.336;2024-02-23T07:15:14;6.80;99.90
14471;DHT22;7321;50.802;4.336;2024-02-23T07:17:40;6.90;99.90
14471;DHT22;7321;50.802;4.336;2024-02-23T07:20:06;6.90;99.90
14471;DHT22;7321;50.802;4.336;2024-02-23T07:22:32;6.90;99.90
14471;DHT22;7321;50.802;4.336;2024-02-23T07:24:58;6.80;99.90
14471;DHT22;7321;50.802;4.336;2024-02-23T07:27:24;6.80;99.90
14471;DHT22;7321;50.802;4.336;2024-02-23T07:29:49;6.70;99.90
14471;DHT22;7321;50.802;4.336;2024-02-23T07:32:15;6.80;99.90
14471;DHT22;7321;50.802;4.336;2024-02-23T07:34:41;6.70;99.90
14471;DHT22;7321;50.802;4.336;2024-02-23T07:37:06;6.80;99.90
14471;DHT22;7321;50.802;4.336;2024-02-23T07:39:32;6.90;99.90
14471;DHT22;7321;50.802;4.336;2024-02-23T07:41:58;6.90;99.90
14471;DHT22;7321;50.802;4.336;2024-02-23T07:44:24;7.00;99.90
14471;DHT22;7321;50.802;4.336;2024-02-23T07:46:51;7.20;99.90
14471;DHT22;7321;50.802;4.336;2024-02-23T07:49:19;7.40;99.90
14471;DHT22;7321;50.802;4.336;2024-02-23T07:51:45;7.40;99.90
14471;DHT22;7321;50.802;4.336;2024-02-23T07:54:11;7.40;99.90
14471;DHT22;7321;50.802;4.336;2024-02-23T07:56:37;7.50;99.90
14471;DHT22;7321;50.802;4.336;2024-02-23T07:59:03;7.60;99.90
14471;DHT22;7321;50.802;4.336;2024-02-23T08:01:28;7.60;99.90
14471;DHT22;7321;50.802;4.336;2024-02-23T08:03:55;7.60;99.90
14471;DHT22;7321;50.802;4.336;2024-02-23T08:06:21;7.50;99.90
14471;DHT22;7321;50.802;4.336;2024-02-23T08:08:47;7.40;99.90
14471;DHT22;7321;50.802;4.336;2024-02-23T08:11:13;7.20;99.90
14471;DHT22;7321;50.802;4.336;2024-02-23T08:13:41;7.10;99.90
14471;DHT22;7321;50.802;4.336;2024-02-23T08:16:07;7.00;99.90
14471;DHT22;7321;50.802;4.336;2024-02-23T08:18:33;6.90;99.90
14471;DHT22;7321;50.802;4.336;2024-02-23T08:20:59;6.90;99.90
14471;DHT22;7321;50.802;4.336;2024-02-23T08:23:27;6.90;99.90
14471;DHT22;7321;50.802;4.336;2024-02-23T08:25:53;6.90;99.90
14471;DHT22;7321;50.802;4.336;2024-02-23T08:28:19;6.80;99.90
14471;DHT22;7321;50.802;4.336;2024-02-23T08:30:45;6.90;99.90
14471;DHT22;7321;50.802;4.336;2024-02-23T08:33:14;6.70;99.90
14471;DHT22;7321;50.802;4.336;2024-02-23T08:35:40;6.70;99.90
14471;DHT22;7321;50.802;4.336;2024-02-23T08:38:06;6.80;99.90
14471;DHT22;7321;50.802;4.336;2024-02-23T08:40:32;6.70;99.90
14471;DHT22;7321;50.802;4.336;2024-02-23T08:42:58;6.80;99.90
14471;DHT22;7321;50.802;4.336;2024-02-23T08:45:24;6.80;99.90
14471;DHT22;7321;50.802;4.336;2024-02-23T08:47:49;7.00;99.90
14471;DHT22;7321;50.802;4.336;2024-02-23T08:50:15;6.90;99.90
14471;DHT22;7321;50.802;4.336;2024-02-23T08:52:41;6.90;99.90
14471;DHT22;7321;50.802;4.336;2024-02-23T08:55:07;6.80;99.90
14471;DHT22;7321;50.802;4.336;2024-02-23T08:57:33;6.80;99.90
14471;DHT22;7321;50.802;4.336;2024-02-23T08:59:59;6.80;99.90
14471;DHT22;7321;50.802;4.336;2024-02-23T09:02:25;6.80;99.90
14471;DHT22;7321;50.802;4.336;2024-02-23T09:04:51;6.80;99.90
14471;DHT22;7321;50.802;4.336;2024-02-23T09:07:17;6.90;99.90
14471;DHT22;7321;50.802;4.336;2024-02-23T09:09:46;7.00;99.90
14471;DHT22;7321;50.802;4.336;2024-02-23T09:12:15;7.10;99.90
14471;DHT22;7321;50.802;4.336;2024-02-23T09:14:42;7.00;99.90
14471;DHT22;7321;50.802;4.336;2024-02-23T09:17:09;6.90;99.90
14471;DHT22;7321;50.802;4.336;2024-02-23T09:19:36;6.90;99.90
14471;DHT22;7321;50.802;4.336;2024-02-23T09:22:04;6.90;99.90
14471;DHT22;7321;50.802;4.336;2024-02-23T09:24:30;7.00;99.90
14471;DHT22;7321;50.802;4.336;2024-02-23T09:26:56;7.10;99.90
14471;DHT22;7321;50.802;4.336;2024-02-23T09:29:22;7.20;99.90
14471;DHT22;7321;50.802;4.336;2024-02-23T09:31:48;7.30;99.90
14471;DHT22;7321;50.802;4.336;2024-02-23T09:34:13;7.30;99.90
14471;DHT22;7321;50.802;4.336;2024-02-23T09:36:39;7.40;99.90
14471;DHT22;7321;50.802;4.336;2024-02-23T09:39:05;7.40;99.90
14471;DHT22;7321;50.802;4.336;2024-02-23T09:41:31;7.60;99.90
14471;DHT22;7321;50.802;4.336;2024-02-23T09:44:01;7.70;99.90
14471;DHT22;7321;50.802;4.336;2024-02-23T09:46:27;7.80;99.90
14471;DHT22;7321;50.802;4.336;2024-02-23T09:48:55;8.10;99.90
14471;DHT22;7321;50.802;4.336;2024-02-23T09:51:22;7.90;99.90
14471;DHT22;7321;50.802;4.336;2024-02-23T09:53:52;7.80;99.90
14471;DHT22;7321;50.802;4.336;2024-02-23T09:56:18;7.80;99.90
14471;DHT22;7321;50.802;4.336;2024-02-23T09:58:46;7.90;99.90
14471;DHT22;7321;50.802;4.336;2024-02-23T10:01:18;7.90;99.90
14471;DHT22;7321;50.802;4.336;2024-02-23T10:03:45;7.90;99.90
14471;DHT22;7321;50.802;4.336;2024-02-23T10:06:11;8.00;99.90
14471;DHT22;7321;50.802;4.336;2024-02-23T10:08:37;7.90;99.90
14471;DHT22;7321;50.802;4.336;2024-02-23T10:11:03;7.90;99.90
14471;DHT22;7321;50.802;4.336;2024-02-23T10:13:29;7.90;99.90
14471;DHT22;7321;50.802;4.336;2024-02-23T10:15:55;7.80;99.90
14471;DHT22;7321;50.802;4.336;2024-02-23T10:18:22;8.00;99.90
14471;DHT22;7321;50.802;4.336;2024-02-23T10:20:49;8.10;99.90
14471;DHT22;7321;50.802;4.336;2024-02-23T10:23:19;8.20;99.90
14471;DHT22;7321;50.802;4.336;2024-02-23T10:25:45;8.30;99.90
14471;DHT22;7321;50.802;4.336;2024-02-23T10:28:11;8.40;99.90
14471;DHT22;7321;50.802;4.336;2024-02-23T10:30:37;8.20;99.90
14471;DHT22;7321;50.802;4.336;2024-02-23T10:33:06;8.30;99.90
14471;DHT22;7321;50.802;4.336;2024-02-23T10:35:38;8.30;99.90
14471;DHT22;7321;50.802;4.336;2024-02-23T10:38:08;8.40;99.90
14471;DHT22;7321;50.802;4.336;2024-02-23T10:40:39;8.40;99.90
14471;DHT22;7321;50.802;4.336;2024-02-23T10:43:12;8.60;99.90
14471;DHT22;7321;50.802;4.336;2024-02-23T10:45:39;8.50;99.90
14471;DHT22;7321;50.802;4.336;2024-02-23T10:48:08;8.50;99.90
14471;DHT22;7321;50.802;4.336;2024-02-23T10:50:35;8.50;99.90
14471;DHT22;7321;50.802;4.336;2024-02-23T10:53:04;8.40;99.90
14471;DHT22;7321;50.802;4.336;2024-02-23T10:55:32;8.50;99.90
14471;DHT22;7321;50.802;4.336;2024-02-23T10:57:59;8.50;99.90
14471;DHT22;7321;50.802;4.336;2024-02-23T11:00:26;8.40;99.90
14471;DHT22;7321;50.802;4.336;2024-02-23T11:02:53;8.50;99.90
14471;DHT22;7321;50.802;4.336;2024-02-23T11:05:20;8.60;99.90
14471;DHT22;7321;50.802;4.336;2024-02-23T11:07:46;8.60;99.90
14471;DHT22;7321;50.802;4.336;2024-02-23T11:10:17;8.50;99.90
14471;DHT22;7321;50.802;4.336;2024-02-23T11:12:43;8.50;99.90
14471;DHT22;7321;50.802;4.336;2024-02-23T11:15:09;8.50;99.90
14471;DHT22;7321;50.802;4.336;2024-02-23T11:17:51;8.40;99.90
14471;DHT22;7321;50.802;4.336;2024-02-23T11:20:17;8.60;99.90
14471;DHT22;7321;50.802;4.336;2024-02-23T11:22:42;8.70;99.90
14471;DHT22;7321;50.802;4.336;2024-02-23T11:25:09;8.50;99.90
14471;DHT22;7321;50.802;4.336;2024-02-23T11:27:37;8.60;99.90
14471;DHT22;7321;50.802;4.336;2024-02-23T11:30:04;8.70;99.90
14471;DHT22;7321;50.802;4.336;2024-02-23T11:32:47;8.80;99.90
14471;DHT22;7321;50.802;4.336;2024-02-23T11:35:25;8.90;99.90
14471;DHT22;7321;50.802;4.336;2024-02-23T11:37:55;8.90;99.90
14471;DHT22;7321;50.802;4.336;2024-02-23T11:40:26;8.80;99.90
14471;DHT22;7321;50.802;4.336;2024-02-23T11:42:52;9.00;99.90
14471;DHT22;7321;50.802;4.336;2024-02-23T11:45:19;9.00;99.90
14471;DHT22;7321;50.802;4.336;2024-02-23T11:47:45;9.00;99.90
14471;DHT22;7321;50.802;4.336;2024-02-23T11:50:11;9.00;99.90
14471;DHT22;7321;50.802;4.336;2024-02-23T11:52:38;9.00;99.90
14471;DHT22;7321;50.802;4.336;2024-02-23T11:55:04;8.90;99.90
14471;DHT22;7321;50.802;4.336;2024-02-23T11:57:32;8.90;99.90
14471;DHT22;7321;50.802;4.336;2024-02-23T11:59:58;9.20;99.90
14471;DHT22;7321;50.802;4.336;2024-02-23T12:02:24;9.20;99.90
14471;DHT22;7321;50.802;4.336;2024-02-23T12:04:50;9.20;99.90
14471;DHT22;7321;50.802;4.336;2024-02-23T12:07:16;9.10;99.90
14471;DHT22;7321;50.802;4.336;2024-02-23T12:09:42;9.10;99.90
14471;DHT22;7321;50.802;4.336;2024-02-23T12:12:09;9.20;99.90
14471;DHT22;7321;50.802;4.336;2024-02-23T12:14:39;9.40;99.90
14471;DHT22;7321;50.802;4.336;2024-02-23T12:17:08;9.50;99.90
14471;DHT22;7321;50.802;4.336;2024-02-23T12:19:40;9.50;99.90
14471;DHT22;7321;50.802;4.336;2024-02-23T12:22:10;9.70;99.90
14471;DHT22;7321;50.802;4.336;2024-02-23T12:24:36;9.80;99.90
14471;DHT22;7321;50.802;4.336;2024-02-23T12:27:02;9.70;99.90
14471;DHT22;7321;50.802;4.336;2024-02-23T12:29:28;9.70;99.90
14471;DHT22;7321;50.802;4.336;2024-02-23T12:32:06;9.50;99.90
14471;DHT22;7321;50.802;4.336;2024-02-23T12:34:33;9.50;99.90
14471;DHT22;7321;50.802;4.336;2024-02-23T12:36:59;9.70;99.90
14471;DHT22;7321;50.802;4.336;2024-02-23T12:39:25;9.80;99.90
14471;DHT22;7321;50.802;4.336;2024-02-23T12:41:50;9.90;99.90
14471;DHT22;7321;50.802;4.336;2024-02-23T12:44:16;9.90;99.90
14471;DHT22;7321;50.802;4.336;2024-02-23T12:46:42;10.00;99.90
14471;DHT22;7321;50.802;4.336;2024-02-23T12:49:08;10.10;99.90
14471;DHT22;7321;50.802;4.336;2024-02-23T12:51:34;10.20;99.90
14471;DHT22;7321;50.802;4.336;2024-02-23T12:54:00;10.50;99.90
14471;DHT22;7321;50.802;4.336;2024-02-23T12:56:26;10.30;99.90
14471;DHT22;7321;50.802;4.336;2024-02-23T12:58:52;10.40;99.90
14471;DHT22;7321;50.802;4.336;2024-02-23T13:01:23;10.30;99.90
14471;DHT22;7321;50.802;4.336;2024-02-23T13:03:49;10.50;99.90
14471;DHT22;7321;50.802;4.336;2024-02-23T13:06:14;10.20;99.90
14471;DHT22;7321;50.802;4.336;2024-02-23T13:08:40;10.10;99.90
14471;DHT22;7321;50.802;4.336;2024-02-23T13:11:08;10.00;99.90
14471;DHT22;7321;50.802;4.336;2024-02-23T13:13:34;10.10;99.90
14471;DHT22;7321;50.802;4.336;2024-02-23T13:16:00;10.20;99.90
14471;DHT22;7321;50.802;4.336;2024-02-23T13:18:26;10.20;99.90
14471;DHT22;7321;50.802;4.336;2024-02-23T13:20:52;10.30;99.90
14471;DHT22;7321;50.802;4.336;2024-02-23T13:23:18;10.30;99.90
14471;DHT22;7321;50.802;4.336;2024-02-23T13:25:44;10.40;99.90
14471;DHT22;7321;50.802;4.336;2024-02-23T13:28:10;10.00;99.90
14471;DHT22;7321;50.802;4.336;2024-02-23T13:30:37;9.90;99.90
14471;DHT22;7321;50.802;4.336;2024-02-23T13:33:03;9.80;99.90
14471;DHT22;7321;50.802;4.336;2024-02-23T13:35:30;9.90;99.90
14471;DHT22;7321;50.802;4.336;2024-02-23T13:37:56;9.90;99.90
14471;DHT22;7321;50.802;4.336;2024-02-23T13:40:23;9.80;99.90
14471;DHT22;7321;50.802;4.336;2024-02-23T13:42:49;9.80;99.90
14471;DHT22;7321;50.802;4.336;2024-02-23T13:45:16;9.90;99.90
14471;DHT22;7321;50.802;4.336;2024-02-23T13:47:42;9.90;99.90
14471;DHT22;7321;50.802;4.336;2024-02-23T13:50:10;10.00;99.90
14471;DHT22;7321;50.802;4.336;2024-02-23T13:52:36;10.10;99.90
14471;DHT22;7321;50.802;4.336;2024-02-23T13:55:02;10.40;99.90
14471;DHT22;7321;50.802;4.336;2024-02-23T13:57:29;10.50;99.90
14471;DHT22;7321;50.802;4.336;2024-02-23T13:59:54;10.50;99.90
14471;DHT22;7321;50.802;4.336;2024-02-23T14:02:27;10.30;99.90
14471;DHT22;7321;50.802;4.336;2024-02-23T14:05:01;10.20;99.90
14471;DHT22;7321;50.802;4.336;2024-02-23T14:07:32;10.40;99.90
14471;DHT22;7321;50.802;4.336;2024-02-23T14:09:58;10.20;99.90
14471;DHT22;7321;50.802;4.336;2024-02-23T14:12:24;10.30;99.90
14471;DHT22;7321;50.802;4.336;2024-02-23T14:14:50;10.20;99.90
14471;DHT22;7321;50.802;4.336;2024-02-23T14:17:16;10.20;99.90
14471;DHT22;7321;50.802;4.336;2024-02-23T14:19:42;10.20;99.90
14471;DHT22;7321;50.802;4.336;2024-02-23T14:22:08;10.20;99.90
14471;DHT22;7321;50.802;4.336;2024-02-23T14:24:34;10.30;99.90
14471;DHT22;7321;50.802;4.336;2024-02-23T14:27:00;10.30;99.90
14471;DHT22;7321;50.802;4.336;2024-02-23T14:29:26;10.30;99.90
14471;DHT22;7321;50.802;4.336;2024-02-23T14:31:52;10.30;99.90
14471;DHT22;7321;50.802;4.336;2024-02-23T14:34:18;10.30;99.90
14471;DHT22;7321;50.802;4.336;2024-02-23T14:36:45;10.20;99.90
14471;DHT22;7321;50.802;4.336;2024-02-23T14:39:11;10.10;99.90
14471;DHT22;7321;50.802;4.336;2024-02-23T14:41:39;10.10;99.90
14471;DHT22;7321;50.802;4.336;2024-02-23T14:44:05;10.20;99.90
14471;DHT22;7321;50.802;4.336;2024-02-23T14:46:30;10.30;99.90
14471;DHT22;7321;50.802;4.336;2024-02-23T14:48:56;10.40;99.90
14471;DHT22;7321;50.802;4.336;2024-02-23T14:51:22;10.50;99.90
14471;DHT22;7321;50.802;4.336;2024-02-23T14:53:48;10.30;99.90
14471;DHT22;7321;50.802;4.336;2024-02-23T14:56:13;10.40;99.90
14471;DHT22;7321;50.802;4.336;2024-02-23T14:58:39;10.50;99.90
14471;DHT22;7321;50.802;4.336;2024-02-23T15:01:06;10.40;99.90
14471;DHT22;7321;50.802;4.336;2024-02-23T15:03:32;10.30;99.90
14471;DHT22;7321;50.802;4.336;2024-02-23T15:05:58;10.30;99.90
14471;DHT22;7321;50.802;4.336;2024-02-23T15:08:24;10.50;99.90
14471;DHT22;7321;50.802;4.336;2024-02-23T15:10:50;10.70;99.90
14471;DHT22;7321;50.802;4.336;2024-02-23T15:13:19;10.80;99.90
14471;DHT22;7321;50.802;4.336;2024-02-23T15:15:45;10.80;99.90
14471;DHT22;7321;50.802;4.336;2024-02-23T15:18:11;10.70;99.90
14471;DHT22;7321;50.802;4.336;2024-02-23T15:20:37;10.70;99.90
14471;DHT22;7321;50.802;4.336;2024-02-23T15:23:03;10.60;99.90
14471;DHT22;7321;50.802;4.336;2024-02-23T15:25:29;10.50;99.90
14471;DHT22;7321;50.802;4.336;2024-02-23T15:27:55;10.20;99.90
14471;DHT22;7321;50.802;4.336;2024-02-23T15:30:27;10.10;99.90
14471;DHT22;7321;50.802;4.336;2024-02-23T15:32:53;10.20;99.90
14471;DHT22;7321;50.802;4.336;2024-02-23T15:35:19;10.00;99.90
14471;DHT22;7321;50.802;4.336;2024-02-23T15:37:45;10.00;99.90
14471;DHT22;7321;50.802;4.336;2024-02-23T15:40:11;10.20;99.90
14471;DHT22;7321;50.802;4.336;2024-02-23T15:42:37;10.10;99.90
14471;DHT22;7321;50.802;4.336;2024-02-23T15:45:04;10.10;99.90
14471;DHT22;7321;50.802;4.336;2024-02-23T15:47:30;10.10;99.90
14471;DHT22;7321;50.802;4.336;2024-02-23T15:49:57;10.10;99.90
14471;DHT22;7321;50.802;4.336;2024-02-23T15:52:22;10.20;99.90
14471;DHT22;7321;50.802;4.336;2024-02-23T15:54:48;10.20;99.90